METAR Data

Data at: 1407 UTC 11 Dec 2018

METAR for:EGLF (Farnborough Arpt, --, UK)
Text:EGLF 111350Z 15005KT 120V180 9999 FEW016 09/05 Q1024
Temperature: 9.0°C ( 48°F)
Dewpoint: 5.0°C ( 41°F) [RH = 76%]
Pressure (altimeter):30.24 inches Hg (1024.0 mb)
Winds:from the SSE (150 degrees) at 6 MPH (5 knots; 2.6 m/s)
Visibility:6 or more sm (10+ km)
Ceiling:at least 12,000 feet AGL
Clouds: few clouds at 1600 feet AGL

TAF for:EGLF (Farnborough Arpt, --, UK) issued at 1056 UTC 11 Dec 2018
Text:TAF EGLF 111056Z 1112/1121 VRB03KT 9999 FEW040
Forecast period:1200 to 2100 UTC 11 December 2018
Forecast type:FROM: standard forecast or significant change
Winds:variable direction winds at 3 MPH (3 knots; 1.5 m/s)
Visibility:6 or more sm (10+ km)
Ceiling:at least 12,000 feet AGL
Clouds: few clouds at 4000 feet AGL

METAR for:EGUB (Benson(RAF), --, UK)
Text:EGUB 111350Z 17006KT 9999 FEW030 09/05 Q1023 BLU NOSIG
Temperature: 9.0°C ( 48°F)
Dewpoint: 5.0°C ( 41°F) [RH = 76%]
Pressure (altimeter):30.21 inches Hg (1023.0 mb)
Winds:from the S (170 degrees) at 7 MPH (6 knots; 3.1 m/s)
Visibility:6 or more sm (10+ km)
Ceiling:at least 12,000 feet AGL
Clouds: few clouds at 3000 feet AGL

TAF for:EGUB (Benson(RAF), --, UK) issued at 1356 UTC 11 Dec 2018
Text:TAF EGUB 111356Z 1115/1124 15005KT 9999 SCT030
Forecast period:1500 UTC 11 December 2018 to 0000 UTC 12 December 2018
Forecast type:FROM: standard forecast or significant change
Winds:from the SSE (150 degrees) at 6 MPH (5 knots; 2.6 m/s)
Visibility:6 or more sm (10+ km)
Ceiling:at least 12,000 feet AGL
Clouds: scattered clouds at 3000 feet AGL
Text:PROB40 1119/1124 6000 HZ
Forecast period:1900 UTC 11 December 2018 to 0000 UTC 12 December 2018
Forecast type:PROBABLE: 40 percent likelihood of the following during this time
Visibility: 4 sm ( 6 km)
Clouds:missing
Weather:HZ (haze)
Text:PROB40
Forecast period:2000 UTC 11 December 2018 to 0000 UTC 12 December 2018
Forecast type:TEMPORARY: The following changes expected for less than half the time period
Ceiling:2000 feet AGL
Clouds: broken clouds at 2000 feet AGL
Weather:-RA (light rain)

METAR for:EGVO (Odiham(RAF), --, UK)
Text:EGVO 111350Z 16006KT 9999 FEW015 09/05 Q1023 BLU NOSIG
Temperature: 9.0°C ( 48°F)
Dewpoint: 5.0°C ( 41°F) [RH = 76%]
Pressure (altimeter):30.21 inches Hg (1023.0 mb)
Winds:from the SSE (160 degrees) at 7 MPH (6 knots; 3.1 m/s)
Visibility:6 or more sm (10+ km)
Ceiling:at least 12,000 feet AGL
Clouds: few clouds at 1500 feet AGL

TAF for:EGVO (Odiham(RAF), --, UK) issued at 1343 UTC 11 Dec 2018
Text:TAF EGVO 111343Z 1115/1203 16005KT 9999 FEW015
Forecast period:1500 UTC 11 December 2018 to 0300 UTC 12 December 2018
Forecast type:FROM: standard forecast or significant change
Winds:from the SSE (160 degrees) at 6 MPH (5 knots; 2.6 m/s)
Visibility:6 or more sm (10+ km)
Ceiling:at least 12,000 feet AGL
Clouds: few clouds at 1500 feet AGL
Text:PROB30
Forecast period:1800 UTC 11 December 2018 to 0300 UTC 12 December 2018
Forecast type:TEMPORARY: The following changes expected for less than half the time period
Ceiling:at least 12,000 feet AGL
Clouds: scattered clouds at 2000 feet AGL
Text:TEMPO 1118/1203 SCT020
Forecast period:1900 UTC 11 December 2018 to 0300 UTC 12 December 2018
Forecast type:TEMPORARY: The following changes expected for less than half the time period
Visibility: 4 sm ( 6 km)
Clouds:missing
Weather:HZ (haze)

METAR for:EGTK (Oxford Arpt, --, UK)
Text:EGTK 111350Z 09003KT CAVOK 07/05 Q1023
Temperature: 7.0°C ( 45°F)
Dewpoint: 5.0°C ( 41°F) [RH = 87%]
Pressure (altimeter):30.21 inches Hg (1023.0 mb)
Winds:from the E (90 degrees) at 3 MPH (3 knots; 1.5 m/s)
Visibility:6 or more sm (10+ km)
Ceiling:ceiling and visibility are OK
Clouds:unknown

TAF for:EGTK (Oxford Arpt, --, UK) issued at 1355 UTC 11 Dec 2018
Text:TAF EGTK 111355Z 1115/1123 15006KT 9999 FEW020
Forecast period:1500 to 2300 UTC 11 December 2018
Forecast type:FROM: standard forecast or significant change
Winds:from the SSE (150 degrees) at 7 MPH (6 knots; 3.1 m/s)
Visibility:6 or more sm (10+ km)
Ceiling:at least 12,000 feet AGL
Clouds: few clouds at 2000 feet AGL

METAR for:EGHH (Bournemouth Intl, --, UK)
Text:EGHH 111350Z 19007KT 9999 BKN027 11/07 Q1023
Temperature: 11.0°C ( 52°F)
Dewpoint: 7.0°C ( 45°F) [RH = 76%]
Pressure (altimeter):30.21 inches Hg (1023.0 mb)
Winds:from the S (190 degrees) at 8 MPH (7 knots; 3.6 m/s)
Visibility:6 or more sm (10+ km)
Ceiling:2700 feet AGL
Clouds: broken clouds at 2700 feet AGL

TAF for:EGHH (Bournemouth Intl, --, UK) issued at 1355 UTC 11 Dec 2018
Text:TAF EGHH 111355Z 1115/1124 12006KT 9999 SCT030
Forecast period:1500 UTC 11 December 2018 to 0000 UTC 12 December 2018
Forecast type:FROM: standard forecast or significant change
Winds:from the ESE (120 degrees) at 7 MPH (6 knots; 3.1 m/s)
Visibility:6 or more sm (10+ km)
Ceiling:at least 12,000 feet AGL
Clouds: scattered clouds at 3000 feet AGL
Text:PROB30
Forecast period:1500 UTC 11 December 2018 to 0000 UTC 12 December 2018
Forecast type:TEMPORARY: The following changes expected for less than half the time period
Ceiling:1400 feet AGL
Clouds: broken clouds at 1400 feet AGL

METAR for:
Text:No data found

TAF for:
Text:No data found